Time,TemperatureF,DewpointF,PressureIn,WindDirection,WindDirectionDegrees,WindSpeedMPH,WindSpeedGustMPH,Humidity,HourlyPrecipIn,Conditions,Clouds,dailyrainin,SoftwareType,DateUTC
2017-02-25 00:00:00,37.0,37.0,29.75,WNW,292,0.0,0.0,100,-99.99,,,-99.99,,2017-02-25 05:00:00,
2017-02-25 00:49:00,36.0,36.0,29.78,WNW,292,0.0,0.0,100,-99.99,,,-99.99,,2017-02-25 05:49:00,
2017-02-25 01:10:00,35.0,35.0,29.78,WNW,292,0.0,0.0,100,-99.99,,,-99.99,,2017-02-25 06:10:00,
2017-02-25 01:28:00,35.0,35.0,29.78,WNW,292,0.0,-999.0,100,-99.99,,,-99.99,,2017-02-25 06:28:00,
2017-02-25 01:49:00,35.0,35.0,29.78,WNW,292,0.0,0.0,100,-99.99,,,-99.99,,2017-02-25 06:49:00,
2017-02-25 02:10:00,35.0,35.0,29.78,WNW,292,0.0,0.0,100,-99.99,,,-99.99,,2017-02-25 07:10:00,
2017-02-25 02:28:00,35.0,35.0,29.75,WNW,292,0.0,0.0,100,-99.99,,,-99.99,,2017-02-25 07:28:00,
2017-02-25 03:09:00,35.0,35.0,29.75,WNW,292,0.0,0.0,100,-99.99,,,-99.99,,2017-02-25 08:09:00,
2017-02-25 03:28:00,35.0,35.0,29.78,WNW,292,0.0,0.0,100,-99.99,,,-99.99,,2017-02-25 08:28:00,
2017-02-25 04:00:00,35.0,35.0,29.78,WNW,292,0.0,0.0,100,-99.99,,,-99.99,,2017-02-25 09:00:00,
2017-02-25 04:18:00,35.0,35.0,29.78,WNW,292,0.0,0.0,100,-99.99,,,-99.99,,2017-02-25 09:18:00,
2017-02-25 04:38:00,36.0,36.0,29.78,WNW,292,0.0,0.0,100,-99.99,,,-99.99,,2017-02-25 09:38:00,
2017-02-25 05:09:00,36.0,36.0,29.78,WNW,292,0.0,0.0,100,-99.99,,,-99.99,,2017-02-25 10:09:00,
2017-02-25 05:31:00,36.0,36.0,29.78,WNW,292,0.0,0.0,100,-99.99,,,-99.99,,2017-02-25 10:31:00,
2017-02-25 06:09:00,36.0,36.0,29.78,WNW,292,0.0,0.0,100,-99.99,,,-99.99,,2017-02-25 11:09:00,
2017-02-25 06:28:00,36.0,36.0,29.78,WNW,292,0.0,0.0,100,-99.99,,,-99.99,,2017-02-25 11:28:00,
2017-02-25 06:48:00,36.0,36.0,29.78,WNW,292,0.0,0.0,100,-99.99,,,-99.99,,2017-02-25 11:48:00,
2017-02-25 07:10:00,37.0,37.0,29.78,WNW,292,0.0,0.0,100,-99.99,,,-99.99,,2017-02-25 12:10:00,
2017-02-25 07:27:00,37.0,37.0,29.78,WNW,292,0.0,0.0,100,-99.99,,,-99.99,,2017-02-25 12:27:00,
2017-02-25 08:11:00,39.0,39.0,29.78,WSW,248,0.0,0.0,100,-99.99,,,-99.99,,2017-02-25 13:11:00,
2017-02-25 08:28:00,39.0,39.0,29.78,WSW,248,0.0,0.0,100,-99.99,,,-99.99,,2017-02-25 13:28:00,
2017-02-25 09:10:00,41.0,41.0,29.78,WSW,248,0.0,0.0,100,-99.99,,,-99.99,,2017-02-25 14:10:00,
2017-02-25 09:31:00,44.0,44.0,29.78,ENE,68,0.0,-999.0,100,-99.99,,,-99.99,,2017-02-25 14:31:00,
2017-02-25 09:50:00,45.0,45.0,29.78,North,0,0.0,0.0,100,-99.99,,,-99.99,,2017-02-25 14:50:00,
2017-02-25 10:09:00,46.0,46.0,29.78,East,97,0.0,0.0,100,-99.99,,,-99.99,,2017-02-25 15:09:00,
2017-02-25 10:28:00,47.0,47.0,29.75,ENE,68,0.0,0.0,100,-99.99,,,-99.99,,2017-02-25 15:28:00,
2017-02-25 11:31:00,52.0,52.0,29.72,SSE,158,0.0,0.0,100,-99.99,,,-99.99,,2017-02-25 16:31:00,
2017-02-25 14:09:00,60.0,54.0,29.63,SSE,158,2.0,6.0,80,-99.99,,,-99.99,,2017-02-25 19:09:00,
2017-02-25 14:28:00,59.0,53.0,29.63,SSE,154,1.0,-999.0,80,-99.99,,,-99.99,,2017-02-25 19:28:00,
2017-02-25 15:18:00,59.0,53.0,29.57,ESE,122,2.0,-999.0,80,-99.99,,,-99.99,,2017-02-25 20:18:00,
2017-02-25 16:04:00,56.0,49.0,29.54,ESE,116,1.0,3.0,78,-99.99,,,-99.99,,2017-02-25 21:04:00,
2017-02-25 16:31:00,55.0,50.0,29.54,ESE,107,1.0,-999.0,83,-99.99,,,-99.99,,2017-02-25 21:31:00,
2017-02-25 16:57:00,53.0,50.0,29.52,SE,143,3.0,6.0,88,-99.99,,,-99.99,,2017-02-25 21:57:00,
2017-02-25 17:28:00,48.0,47.0,29.49,SSW,192,1.0,2.0,97,-99.99,,,-99.99,,2017-02-25 22:28:00,
2017-02-25 18:09:00,47.0,47.0,29.46,SSW,204,1.0,2.0,100,-99.99,,,-99.99,,2017-02-25 23:09:00,
2017-02-25 18:49:00,45.0,45.0,29.43,North,355,0.0,0.0,100,-99.99,,,-99.99,,2017-02-25 23:49:00,
2017-02-25 19:09:00,44.0,44.0,29.46,West,270,0.0,0.0,100,-99.99,,,-99.99,,2017-02-26 00:09:00,
2017-02-25 19:29:00,44.0,44.0,29.49,ESE,112,0.0,0.0,100,-99.99,,,-99.99,,2017-02-26 00:29:00,
2017-02-25 19:52:00,44.0,44.0,29.43,SSE,158,0.0,0.0,100,-99.99,,,-99.99,,2017-02-26 00:52:00,
2017-02-25 20:09:00,44.0,44.0,29.43,SSE,158,0.0,0.0,100,-99.99,,,-99.99,,2017-02-26 01:09:00,
2017-02-25 20:28:00,44.0,44.0,29.40,SSE,158,0.0,-999.0,100,-99.99,,,-99.99,,2017-02-26 01:28:00,